Time;durP1;ratioP1;P1;durP2;ratioP2;P2;SDS_P1;SDS_P2;PMS_P1;PMS_P2;Temp;Humidity;BMP_temperature;BMP_pressure;BME280_temperature;BME280_humidity;BME280_pressure;Samples;Min_cycle;Max_cycle;Signal;HPM_P1;HPM_P2
2023/07/22 00:00:00;;;;;;;14.20;6.00;;;;;;;18.19;69.87;99620.70;105225;1260;61748;-74
2023/07/22 00:02:31;;;;;;;17.50;5.40;;;;;;;18.15;70.22;99618.96;105206;1256;60533;-76
2023/07/22 00:04:58;;;;;;;13.90;6.40;;;;;;;18.12;70.30;99622.79;105305;1260;72573;-76
2023/07/22 00:07:26;;;;;;;15.40;6.10;;;;;;;18.10;70.36;99624.21;106861;1260;68731;-74
2023/07/22 00:09:54;;;;;;;27.10;6.60;;;;;;;18.09;70.31;99620.59;108154;1256;71676;-74
2023/07/22 00:12:25;;;;;;;43.80;7.80;;;;;;;18.09;69.94;99621.88;106093;1256;60541;-73
2023/07/22 00:14:55;;;;;;;26.90;7.70;;;;;;;18.08;69.08;99621.00;105453;1255;60289;-74
2023/07/22 00:17:24;;;;;;;31.90;8.40;;;;;;;18.10;68.60;99609.00;105245;1257;72621;-72
2023/07/22 00:19:52;;;;;;;39.00;8.10;;;;;;;18.12;68.10;99604.80;105357;1256;68702;-73
2023/07/22 00:22:21;;;;;;;25.70;6.50;;;;;;;18.13;68.31;99606.98;105394;1254;72824;-74
2023/07/22 00:24:49;;;;;;;22.00;7.00;;;;;;;18.12;68.45;99603.80;105496;1256;60518;-72
2023/07/22 00:27:17;;;;;;;21.60;6.30;;;;;;;18.10;69.04;99601.64;105214;1255;60516;-74
2023/07/22 00:29:44;;;;;;;28.10;6.50;;;;;;;18.16;69.47;99595.63;105588;1255;72672;-76
2023/07/22 00:32:13;;;;;;;22.80;7.30;;;;;;;18.22;69.72;99590.82;105467;1258;69189;-74
2023/07/22 00:34:41;;;;;;;24.50;6.90;;;;;;;18.21;69.98;99580.48;105193;1256;71069;-73
2023/07/22 00:37:08;;;;;;;23.80;6.30;;;;;;;18.20;70.25;99578.39;106072;1254;60497;-74
2023/07/22 00:39:36;;;;;;;17.50;6.50;;;;;;;18.19;70.62;99576.82;108067;1259;59657;-73
2023/07/22 00:42:04;;;;;;;24.00;6.60;;;;;;;18.21;70.44;99576.30;106559;1257;74058;-76
2023/07/22 00:44:32;;;;;;;17.40;6.00;;;;;;;18.24;70.03;99574.87;105326;1255;70407;-75
2023/07/22 00:47:00;;;;;;;16.00;5.90;;;;;;;18.25;69.52;99570.92;105440;1258;72670;-76
2023/07/22 00:49:27;;;;;;;13.80;5.80;;;;;;;18.26;68.38;99569.88;105528;1255;60547;-77
2023/07/22 00:51:58;;;;;;;17.40;5.70;;;;;;;18.28;68.07;99566.92;105515;1261;60445;-76
2023/07/22 00:54:25;;;;;;;21.80;5.50;;;;;;;18.29;67.84;99566.73;105541;1256;74077;-78
2023/07/22 00:56:53;;;;;;;15.10;6.30;;;;;;;18.31;67.58;99567.98;105363;1260;68795;-77
2023/07/22 00:59:20;;;;;;;13.30;5.50;;;;;;;18.32;67.70;99574.84;105383;1254;72785;-73
2023/07/22 01:01:48;;;;;;;12.00;5.40;;;;;;;18.34;67.13;99576.34;105198;1263;60965;-74
2023/07/22 01:04:16;;;;;;;14.40;5.50;;;;;;;18.36;66.87;99571.94;105143;1260;60320;-73
2023/07/22 01:06:44;;;;;;;10.70;5.40;;;;;;;18.38;67.14;99574.15;105342;1255;72591;-75
2023/07/22 01:09:13;;;;;;;13.70;5.40;;;;;;;18.39;66.95;99576.58;107447;1257;70629;-74
2023/07/22 01:11:41;;;;;;;15.00;6.30;;;;;;;18.42;66.54;99573.73;106703;1255;71081;-74
2023/07/22 01:14:09;;;;;;;13.50;5.10;;;;;;;18.45;66.88;99573.77;105808;1261;60481;-74
2023/07/22 01:16:37;;;;;;;10.50;5.30;;;;;;;18.47;66.86;99578.88;105322;1255;60371;-72
2023/07/22 01:19:04;;;;;;;16.00;6.20;;;;;;;18.49;66.93;99581.16;105283;1255;73340;-75
2023/07/22 01:21:32;;;;;;;13.10;5.40;;;;;;;18.50;66.95;99578.59;105319;1263;68831;-77
2023/07/22 01:24:01;;;;;;;6.40;4.80;;;;;;;18.51;66.77;99577.45;105309;1261;71471;-75
2023/07/22 01:26:29;;;;;;;7.60;4.20;;;;;;;18.51;66.42;99573.58;105048;1261;60981;-74
2023/07/22 01:29:06;;;;;;;10.70;4.30;;;;;;;18.53;65.87;99576.96;105011;1260;60420;-74
2023/07/22 01:31:35;;;;;;;6.90;4.10;;;;;;;18.56;65.58;99576.57;105484;1253;73810;-77
2023/07/22 01:34:04;;;;;;;6.90;5.00;;;;;;;18.58;65.38;99576.20;105767;1253;70310;-74
2023/07/22 01:36:31;;;;;;;7.20;4.40;;;;;;;18.59;65.50;99576.77;105472;1253;72667;-75
2023/07/22 01:39:00;;;;;;;6.00;4.70;;;;;;;18.60;65.61;99578.21;107336;1253;59340;-74
2023/07/22 01:41:28;;;;;;;8.00;4.60;;;;;;;18.59;65.47;99578.50;107716;1253;59607;-74
2023/07/22 01:43:55;;;;;;;8.80;4.80;;;;;;;18.60;65.52;99575.23;106688;1256;73784;-76
2023/07/22 01:46:23;;;;;;;6.40;5.00;;;;;;;18.59;65.58;99578.54;105379;1260;69213;-72
2023/07/22 01:48:50;;;;;;;6.50;4.20;;;;;;;18.58;65.81;99580.55;105518;1254;71676;-75
2023/07/22 01:51:18;;;;;;;6.90;4.60;;;;;;;18.55;65.91;99574.99;105346;1256;60432;-73
2023/07/22 01:53:45;;;;;;;10.10;4.40;;;;;;;18.52;65.76;99576.51;105304;1254;60565;-73
2023/07/22 01:56:13;;;;;;;5.10;3.80;;;;;;;18.49;65.49;99576.30;105474;1253;72605;-73
2023/07/22 01:58:40;;;;;;;4.40;3.80;;;;;;;18.46;65.46;99575.46;105167;1260;69979;-73
2023/07/22 02:01:08;;;;;;;5.20;4.00;;;;;;;18.43;65.53;99575.33;105342;1258;72744;-75
2023/07/22 02:03:36;;;;;;;9.40;4.00;;;;;;;18.42;65.47;99575.39;105474;1257;60582;-72
2023/07/22 02:06:04;;;;;;;8.60;3.90;;;;;;;18.39;65.44;99575.59;105443;1254;60541;-72
2023/07/22 02:08:32;;;;;;;5.80;3.70;;;;;;;18.37;65.43;99579.65;106318;1253;72960;-74
2023/07/22 02:11:03;;;;;;;4.90;4.10;;;;;;;18.35;65.46;99578.10;106220;1253;68974;-73
2023/07/22 02:13:31;;;;;;;5.30;3.60;;;;;;;18.34;65.54;99573.81;105945;1254;70452;-72
2023/07/22 02:15:59;;;;;;;3.90;3.00;;;;;;;18.34;65.34;99575.96;105559;1254;60520;-73
2023/07/22 02:18:27;;;;;;;9.50;3.90;;;;;;;18.34;65.22;99581.30;105443;1253;60799;-72
2023/07/22 02:20:55;;;;;;;8.10;3.40;;;;;;;18.35;65.23;99585.55;105464;1253;73844;-75
2023/07/22 02:23:23;;;;;;;5.70;3.80;;;;;;;18.34;65.12;99587.96;105635;1253;70157;-75
2023/07/22 02:25:51;;;;;;;4.40;3.60;;;;;;;18.34;65.15;99588.34;105347;1254;70137;-73
2023/07/22 02:28:23;;;;;;;6.00;3.10;;;;;;;18.34;65.03;99585.65;105448;1253;60447;-73
2023/07/22 02:30:52;;;;;;;4.50;3.50;;;;;;;18.35;65.07;99585.43;105301;1257;60502;-75
2023/07/22 02:33:21;;;;;;;4.00;3.40;;;;;;;18.37;65.05;99585.90;105494;1258;74051;-76
2023/07/22 02:35:49;;;;;;;3.80;3.40;;;;;;;18.38;64.88;99587.14;105479;1254;72695;-71
2023/07/22 02:38:16;;;;;;;5.50;3.20;;;;;;;18.40;64.96;99587.02;105452;1255;72698;-76
2023/07/22 02:40:45;;;;;;;5.00;3.20;;;;;;;18.43;64.83;99587.54;107467;1253;60445;-76
2023/07/22 02:43:12;;;;;;;4.10;3.10;;;;;;;18.47;64.74;99591.52;107032;1253;60544;-76
2023/07/22 02:45:40;;;;;;;4.20;3.40;;;;;;;18.51;64.58;99595.03;105891;1254;72569;-72
2023/07/22 02:48:09;;;;;;;5.00;3.40;;;;;;;18.56;64.48;99595.77;105509;1256;68929;-72
2023/07/22 02:50:36;;;;;;;4.00;3.30;;;;;;;18.61;64.40;99596.11;106475;1254;70579;-75
2023/07/22 02:53:04;;;;;;;4.80;3.20;;;;;;;18.66;64.17;99593.12;106213;1256;60547;-73
2023/07/22 02:55:31;;;;;;;3.20;2.90;;;;;;;18.71;64.02;99587.80;105285;1260;60346;-74
2023/07/22 02:57:59;;;;;;;5.20;4.00;;;;;;;18.75;63.88;99585.95;105595;1259;73833;-73
2023/07/22 03:00:27;;;;;;;5.50;3.50;;;;;;;18.80;63.76;99584.20;105426;1260;69612;-75
2023/07/22 03:03:01;;;;;;;6.20;3.90;;;;;;;18.83;63.48;99586.04;105403;1253;71373;-73
2023/07/22 03:05:29;;;;;;;5.30;4.00;;;;;;;18.87;63.57;99585.33;105460;1254;60593;-74
2023/07/22 03:07:57;;;;;;;5.60;4.10;;;;;;;18.89;63.44;99585.56;105555;1254;60538;-72
2023/07/22 03:10:25;;;;;;;9.00;4.70;;;;;;;18.92;63.48;99586.44;106360;1253;72822;-71
2023/07/22 03:12:55;;;;;;;8.00;5.50;;;;;;;18.94;63.39;99586.28;106890;1260;68925;-72
2023/07/22 03:15:25;;;;;;;9.00;6.90;;;;;;;18.97;63.33;99584.21;105842;1253;72693;-71
2023/07/22 03:17:53;;;;;;;10.30;9.20;;;;;;;18.98;63.26;99582.58;105531;1256;60569;-71
2023/07/22 03:20:24;;;;;;;10.40;8.80;;;;;;;18.99;63.27;99574.95;105568;1253;60448;-73
2023/07/22 03:22:52;;;;;;;11.80;8.30;;;;;;;18.98;63.24;99574.01;105624;1257;72626;-72
2023/07/22 03:25:20;;;;;;;10.20;7.40;;;;;;;18.98;63.28;99566.91;105234;1253;70194;-72
2023/07/22 03:27:47;;;;;;;9.90;6.90;;;;;;;18.99;63.28;99564.15;105455;1256;70984;-70
2023/07/22 03:30:16;;;;;;;10.20;6.00;;;;;;;19.00;63.32;99564.91;105433;1259;61072;-70
2023/07/22 03:32:45;;;;;;;4.90;4.40;;;;;;;19.01;63.38;99562.90;105400;1254;60561;-71
2023/07/22 03:35:13;;;;;;;5.30;4.80;;;;;;;19.02;63.18;99559.11;105474;1254;72717;-72
2023/07/22 03:37:40;;;;;;;4.80;3.70;;;;;;;19.03;63.10;99555.14;105547;1252;69066;-73
2023/07/22 03:40:17;;;;;;;5.80;3.90;;;;;;;19.04;63.05;99557.66;105624;1260;72566;-70
2023/07/22 03:42:55;;;;;;;4.60;3.60;;;;;;;19.05;62.93;99558.27;106162;1254;60500;-72
2023/07/22 03:45:22;;;;;;;6.40;3.80;;;;;;;19.05;62.81;99560.70;105862;1254;223112;-71
2023/07/22 03:48:47;;;;;;;5.10;3.80;;;;;;;19.09;62.86;99560.48;102370;1291;600510;-71
2023/07/22 03:51:15;;;;;;;6.90;4.00;;;;;;;19.09;62.79;99562.42;105288;1254;60068;-71
2023/07/22 03:53:47;;;;;;;3.70;3.30;;;;;;;19.12;62.77;99559.54;105612;1257;59249;-71
2023/07/22 03:56:15;;;;;;;4.80;3.40;;;;;;;19.13;62.65;99559.06;105779;1254;72438;-74
2023/07/22 03:58:42;;;;;;;4.60;3.10;;;;;;;19.14;62.49;99559.63;105694;1254;69988;-74
2023/07/22 04:01:11;;;;;;;4.70;4.20;;;;;;;19.14;62.58;99556.08;105663;1254;71457;-72
2023/07/22 04:03:39;;;;;;;7.60;3.20;;;;;;;19.17;62.48;99556.31;105908;1253;197430;-73
2023/07/22 04:06:06;;;;;;;3.90;3.20;;;;;;;19.19;62.57;99555.20;105975;1252;59201;-71
2023/07/22 04:08:34;;;;;;;4.50;3.10;;;;;;;19.22;62.64;99553.98;106630;1251;70458;-72
2023/07/22 04:11:02;;;;;;;4.20;3.10;;;;;;;19.23;62.54;99557.30;106122;1252;69991;-73
2023/07/22 04:13:29;;;;;;;4.60;3.60;;;;;;;19.25;62.68;99556.36;107095;1252;72689;-71
2023/07/22 04:15:57;;;;;;;3.50;3.20;;;;;;;19.28;62.67;99555.79;107135;1253;60272;-72
2023/07/22 04:18:25;;;;;;;4.90;3.60;;;;;;;19.30;62.65;99554.30;105761;1251;60123;-72
2023/07/22 04:20:55;;;;;;;3.80;3.30;;;;;;;19.33;62.63;99551.14;105691;1251;73251;-72
2023/07/22 04:23:23;;;;;;;4.00;3.10;;;;;;;19.36;62.58;99544.65;105618;1259;69217;-70
2023/07/22 04:25:50;;;;;;;3.50;3.20;;;;;;;19.39;62.37;99539.87;105472;1256;72701;-69
2023/07/22 04:28:18;;;;;;;5.20;3.20;;;;;;;19.41;62.25;99540.36;105537;1256;61245;-73
2023/07/22 04:30:54;;;;;;;5.00;3.20;;;;;;;19.46;62.13;99546.92;105840;1255;60079;-70
2023/07/22 04:33:22;;;;;;;3.40;3.10;;;;;;;19.50;61.97;99549.08;105876;1254;70768;-71
2023/07/22 04:35:49;;;;;;;4.30;3.40;;;;;;;19.53;61.93;99549.34;105888;1255;70081;-70
2023/07/22 04:38:17;;;;;;;3.90;3.50;;;;;;;19.54;62.07;99545.61;105534;1257;71489;-70
2023/07/22 04:40:44;;;;;;;3.70;3.10;;;;;;;19.55;62.15;99543.73;105489;1253;60582;-71
2023/07/22 04:43:12;;;;;;;4.80;3.30;;;;;;;19.57;62.30;99539.67;108164;1252;60115;-72
2023/07/22 04:45:40;;;;;;;5.20;3.60;;;;;;;19.59;62.30;99537.89;106257;1253;71764;-72
2023/07/22 04:48:07;;;;;;;3.80;3.30;;;;;;;19.62;62.22;99537.27;105307;1259;68863;-73
2023/07/22 04:50:35;;;;;;;4.60;3.80;;;;;;;19.65;62.35;99540.41;105359;1256;72674;-70
2023/07/22 04:53:02;;;;;;;4.00;3.60;;;;;;;19.70;62.32;99539.05;105216;1260;59824;-70
2023/07/22 04:55:30;;;;;;;5.10;3.50;;;;;;;19.70;62.24;99539.19;105438;1254;60266;-72
2023/07/22 04:57:57;;;;;;;4.80;3.30;;;;;;;19.69;62.47;99537.96;105363;1256;73111;-74
2023/07/22 05:00:24;;;;;;;4.90;3.40;;;;;;;19.67;62.47;99536.52;105339;1254;69957;-74
2023/07/22 05:02:54;;;;;;;4.40;3.60;;;;;;;19.65;62.41;99542.39;105377;1258;72689;-76
2023/07/22 05:05:22;;;;;;;3.70;3.40;;;;;;;19.61;62.27;99540.80;105384;1256;60258;-77
2023/07/22 05:07:50;;;;;;;4.80;3.80;;;;;;;19.58;62.25;99547.58;105367;1260;60924;-76
2023/07/22 05:10:19;;;;;;;4.20;3.40;;;;;;;19.56;62.29;99546.86;105352;1258;71728;-74
2023/07/22 05:12:46;;;;;;;4.50;3.50;;;;;;;19.53;62.42;99545.45;106392;1258;69043;-75
2023/07/22 05:15:14;;;;;;;4.10;3.70;;;;;;;19.49;62.57;99551.33;106529;1256;72639;-72
2023/07/22 05:17:41;;;;;;;3.50;3.20;;;;;;;19.43;62.64;99555.42;106271;1254;59737;-74
2023/07/22 05:20:10;;;;;;;4.50;3.00;;;;;;;19.38;62.80;99549.87;105373;1260;60158;-72
2023/07/22 05:22:37;;;;;;;3.90;3.00;;;;;;;19.34;62.96;99538.08;105562;1258;72966;-72
2023/07/22 05:25:06;;;;;;;4.00;3.60;;;;;;;19.31;63.03;99541.27;105586;1258;68946;-74
2023/07/22 05:27:33;;;;;;;6.40;3.20;;;;;;;19.28;63.11;99538.46;105463;1255;72487;-73
2023/07/22 05:30:01;;;;;;;5.50;2.90;;;;;;;19.24;63.27;99534.70;105471;1256;59734;-72
2023/07/22 05:32:29;;;;;;;4.00;2.80;;;;;;;19.20;63.50;99539.45;105395;1254;59992;-72
2023/07/22 05:35:02;;;;;;;3.90;3.00;;;;;;;19.16;63.65;99540.95;105482;1259;73062;-71
2023/07/22 05:37:29;;;;;;;3.80;3.30;;;;;;;19.13;63.75;99538.55;105540;1254;70290;-74
2023/07/22 05:39:56;;;;;;;3.60;2.90;;;;;;;19.10;64.25;99550.16;105325;1258;72726;-72
2023/07/22 05:42:24;;;;;;;3.60;3.00;;;;;;;19.06;64.57;99547.15;107419;1254;59424;-72
2023/07/22 05:44:54;;;;;;;4.70;2.60;;;;;;;19.03;64.96;99546.27;107373;1258;59566;-70
2023/07/22 05:47:22;;;;;;;3.30;2.70;;;;;;;19.02;65.43;99539.55;105999;1254;71084;-69
2023/07/22 05:49:49;;;;;;;4.70;3.20;;;;;;;19.00;65.70;99538.27;106015;1256;70878;-70
2023/07/22 05:52:17;;;;;;;7.70;2.80;;;;;;;18.99;66.13;99537.98;105391;1256;70916;-72
2023/07/22 05:54:44;;;;;;;3.80;3.00;;;;;;;18.99;66.57;99547.13;105394;1256;59733;-69
2023/07/22 05:57:12;;;;;;;2.70;2.40;;;;;;;18.99;67.43;99564.34;105386;1254;59965;-71
2023/07/22 05:59:40;;;;;;;2.50;2.30;;;;;;;19.01;68.59;99568.88;105412;1254;71105;-70
2023/07/22 06:02:08;;;;;;;3.70;2.80;;;;;;;19.00;69.23;99575.35;105352;1253;70430;-69
2023/07/22 06:04:36;;;;;;;4.40;3.00;;;;;;;18.88;69.78;99576.91;105476;1258;71457;-70
2023/07/22 06:07:04;;;;;;;6.10;2.90;;;;;;;18.74;71.11;99584.52;105233;1255;62120;-70
2023/07/22 06:09:31;;;;;;;4.80;2.90;;;;;;;18.59;72.49;99576.45;105472;1255;59616;-73
2023/07/22 06:11:59;;;;;;;4.70;2.80;;;;;;;18.49;73.40;99573.68;105484;1258;75175;-68
2023/07/22 06:14:27;;;;;;;3.60;2.90;;;;;;;18.38;74.36;99564.63;107864;1253;70074;-70
2023/07/22 06:16:54;;;;;;;6.10;3.20;;;;;;;18.27;75.13;99567.36;106494;1255;72458;-71
2023/07/22 06:19:23;;;;;;;6.00;3.20;;;;;;;18.16;76.36;99566.92;105622;1260;59753;-72
2023/07/22 06:21:51;;;;;;;6.20;3.20;;;;;;;18.11;76.75;99565.48;105443;1256;60043;-72
2023/07/22 06:24:20;;;;;;;4.20;3.00;;;;;;;18.09;77.21;99569.39;105453;1256;71828;-70
2023/07/22 06:26:47;;;;;;;4.80;3.30;;;;;;;18.02;77.63;99570.04;105479;1253;70331;-69
2023/07/22 06:29:15;;;;;;;5.10;3.90;;;;;;;17.93;78.56;99573.58;105513;1256;71587;-73
2023/07/22 06:31:42;;;;;;;5.40;3.40;;;;;;;17.83;79.22;99576.75;105355;1258;60410;-72
2023/07/22 06:34:10;;;;;;;8.90;3.40;;;;;;;17.82;79.97;99582.23;105461;1253;60016;-72
2023/07/22 06:36:37;;;;;;;5.20;3.30;;;;;;;17.81;81.24;99594.73;105346;1258;71975;-69
2023/07/22 06:39:04;;;;;;;7.80;3.50;;;;;;;17.71;82.92;99596.39;105272;1254;71169;-73
2023/07/22 06:41:32;;;;;;;6.00;3.60;;;;;;;17.55;83.98;99594.06;105263;1256;71912;-69
2023/07/22 06:44:00;;;;;;;3.20;2.90;;;;;;;17.45;85.29;99601.16;105590;1256;61696;-69
2023/07/22 06:46:27;;;;;;;5.60;3.40;;;;;;;17.37;86.11;99602.12;105994;1253;59762;-69
2023/07/22 06:48:55;;;;;;;8.20;4.20;;;;;;;17.26;87.36;99605.06;105774;1256;71652;-67
2023/07/22 06:51:23;;;;;;;7.10;3.50;;;;;;;17.16;88.55;99597.73;105565;1259;69024;-68
2023/07/22 06:53:50;;;;;;;6.50;3.60;;;;;;;17.03;90.45;99604.14;105328;1256;72524;-69
2023/07/22 06:56:18;;;;;;;6.30;3.70;;;;;;;16.93;91.86;99604.12;105317;1255;61704;-72
2023/07/22 06:58:45;;;;;;;8.10;4.30;;;;;;;16.85;93.21;99606.84;105426;1256;59673;-68
2023/07/22 07:01:13;;;;;;;6.60;4.70;;;;;;;16.78;94.08;99606.82;105381;1256;71747;-72
2023/07/22 07:03:41;;;;;;;5.50;4.30;;;;;;;16.72;94.13;99609.23;105461;1260;68735;-72
2023/07/22 07:06:08;;;;;;;6.60;4.70;;;;;;;16.68;95.57;99604.05;105464;1256;74396;-72
2023/07/22 07:08:37;;;;;;;5.80;4.70;;;;;;;16.65;96.21;99607.98;105491;1256;61649;-71
2023/07/22 07:11:04;;;;;;;6.30;4.80;;;;;;;16.61;96.82;99604.16;105515;1254;59508;-72
2023/07/22 07:13:33;;;;;;;7.90;5.00;;;;;;;16.59;97.04;99612.71;106977;1256;72087;-68
2023/07/22 07:16:25;;;;;;;5.60;4.70;;;;;;;16.59;97.40;99608.25;106206;1257;69346;-69
2023/07/22 07:18:54;;;;;;;5.50;4.50;;;;;;;16.61;98.06;99610.44;106048;1259;71395;-70
2023/07/22 07:21:22;;;;;;;6.50;4.80;;;;;;;16.63;97.91;99604.48;105556;1257;61690;-69
2023/07/22 07:23:51;;;;;;;5.60;4.90;;;;;;;16.64;98.09;99601.91;105414;1254;59693;-71
2023/07/22 07:26:19;;;;;;;10.10;5.40;;;;;;;16.67;98.27;99601.52;105517;1256;72417;-72
2023/07/22 07:28:47;;;;;;;6.40;4.50;;;;;;;16.70;99.02;99604.16;105334;1261;70381;-73
2023/07/22 07:31:15;;;;;;;7.30;4.30;;;;;;;16.71;99.12;99605.50;105319;1256;72604;-71
2023/07/22 07:33:42;;;;;;;4.90;4.30;;;;;;;16.70;98.97;99605.66;105251;1256;61809;-71
2023/07/22 07:36:10;;;;;;;5.10;4.60;;;;;;;16.69;99.17;99600.02;105291;1258;59474;-73
2023/07/22 07:38:37;;;;;;;5.10;4.20;;;;;;;16.68;99.28;99600.08;105430;1256;72189;-71
2023/07/22 07:41:08;;;;;;;5.80;4.50;;;;;;;16.70;99.91;99602.59;105312;1255;70017;-68
2023/07/22 07:43:35;;;;;;;6.80;4.90;;;;;;;16.70;100.00;99602.42;105634;1256;72327;-71
2023/07/22 07:46:20;;;;;;;5.90;4.20;;;;;;;16.71;100.00;99600.13;105858;1256;60813;-69
2023/07/22 07:49:00;;;;;;;5.50;4.90;;;;;;;16.70;100.00;99595.71;105604;1256;59833;-70
2023/07/22 07:51:29;;;;;;;5.60;5.00;;;;;;;16.69;100.00;99593.89;105706;1253;73130;-73
2023/07/22 07:53:59;;;;;;;5.80;5.20;;;;;;;16.72;100.00;99591.45;105589;1256;70060;-72
2023/07/22 07:56:27;;;;;;;5.10;4.60;;;;;;;16.72;100.00;99585.71;105577;1253;74818;-71
2023/07/22 07:58:55;;;;;;;5.70;4.90;;;;;;;16.67;100.00;99584.37;105446;1254;61711;-70
2023/07/22 08:01:22;;;;;;;6.50;4.50;;;;;;;16.64;100.00;99582.64;105502;1253;60466;-71
2023/07/22 08:03:50;;;;;;;5.60;4.20;;;;;;;16.61;100.00;99582.71;105529;1253;71864;-69
2023/07/22 08:06:18;;;;;;;5.80;4.60;;;;;;;16.62;100.00;99578.27;105457;1258;69084;-72
2023/07/22 08:08:46;;;;;;;6.10;3.70;;;;;;;16.65;100.00;99570.73;105343;1255;72685;-73
2023/07/22 08:11:14;;;;;;;8.50;4.70;;;;;;;16.71;100.00;99564.92;105250;1256;61665;-71
2023/07/22 08:13:42;;;;;;;6.80;5.00;;;;;;;16.79;100.00;99569.23;105346;1256;60410;-71
2023/07/22 08:16:12;;;;;;;4.90;4.30;;;;;;;16.86;100.00;99571.45;106145;1258;73878;-72
2023/07/22 08:18:40;;;;;;;5.40;4.40;;;;;;;16.92;100.00;99573.48;106575;1261;69088;-70
2023/07/22 08:21:08;;;;;;;6.10;4.30;;;;;;;16.97;100.00;99572.84;105794;1253;72720;-72
2023/07/22 08:23:36;;;;;;;6.70;3.70;;;;;;;16.96;100.00;99571.31;105480;1256;61783;-72
2023/07/22 08:26:05;;;;;;;5.00;3.70;;;;;;;16.94;100.00;99570.42;105423;1258;60335;-73
2023/07/22 08:28:34;;;;;;;5.10;3.40;;;;;;;16.91;100.00;99569.86;105499;1253;73860;-70
2023/07/22 08:31:01;;;;;;;5.50;4.70;;;;;;;16.86;100.00;99562.17;105668;1256;71254;-71
2023/07/22 08:33:29;;;;;;;4.00;3.60;;;;;;;16.82;100.00;99557.89;105380;1259;71443;-71
2023/07/22 08:36:08;;;;;;;6.20;4.20;;;;;;;16.78;100.00;99558.13;105399;1260;60498;-72
2023/07/22 08:38:36;;;;;;;4.30;3.90;;;;;;;16.74;100.00;99555.21;105415;1253;60512;-71
2023/07/22 08:41:04;;;;;;;5.00;3.50;;;;;;;16.71;100.00;99559.72;105596;1253;73940;-72
2023/07/22 08:43:31;;;;;;;5.70;4.10;;;;;;;16.67;100.00;99554.38;105480;1259;68771;-71
2023/07/22 08:46:00;;;;;;;4.10;3.70;;;;;;;16.66;100.00;99548.27;105622;1255;72771;-71
2023/07/22 08:48:34;;;;;;;5.70;4.30;;;;;;;16.66;100.00;99552.92;107808;1254;60683;-70
2023/07/22 08:51:03;;;;;;;5.30;4.10;;;;;;;16.66;100.00;99547.81;105874;1256;60493;-71
2023/07/22 08:53:33;;;;;;;5.30;4.30;;;;;;;16.69;100.00;99544.42;105462;1259;74085;-69
2023/07/22 08:56:01;;;;;;;6.30;4.80;;;;;;;16.67;100.00;99534.12;105456;1258;70765;-70
2023/07/22 08:58:29;;;;;;;5.20;4.30;;;;;;;16.66;100.00;99534.04;105484;1261;71761;-70
2023/07/22 09:00:57;;;;;;;5.80;4.00;;;;;;;16.63;100.00;99533.23;105407;1256;60420;-71
2023/07/22 09:03:24;;;;;;;7.80;4.00;;;;;;;16.62;100.00;99533.48;105501;1256;60451;-71
2023/07/22 09:05:52;;;;;;;6.60;4.00;;;;;;;16.61;100.00;99531.78;105322;1255;72655;-72
2023/07/22 09:08:20;;;;;;;6.60;4.40;;;;;;;16.60;100.00;99537.73;105337;1257;70355;-70
2023/07/22 09:10:48;;;;;;;5.10;4.50;;;;;;;16.57;100.00;99533.08;105556;1257;72983;-70
2023/07/22 09:13:16;;;;;;;7.10;4.20;;;;;;;16.56;100.00;99531.88;105356;1258;62220;-70
2023/07/22 09:15:43;;;;;;;5.90;3.80;;;;;;;16.56;100.00;99526.36;105966;1253;60415;-69
2023/07/22 09:18:11;;;;;;;4.70;3.90;;;;;;;16.52;100.00;99516.92;105969;1254;71801;-69
2023/07/22 09:20:38;;;;;;;6.50;4.30;;;;;;;16.50;100.00;99509.72;106695;1256;68746;-71
2023/07/22 09:23:06;;;;;;;5.10;4.50;;;;;;;16.50;100.00;99504.60;105605;1256;72654;-70
2023/07/22 09:25:41;;;;;;;5.00;4.40;;;;;;;16.53;100.00;99507.81;105407;1259;60566;-71
2023/07/22 09:28:09;;;;;;;5.00;4.40;;;;;;;16.55;100.00;99505.23;105581;1256;60461;-71
2023/07/22 09:30:38;;;;;;;5.00;4.50;;;;;;;16.60;100.00;99501.67;105330;1260;73722;-71
2023/07/22 09:33:07;;;;;;;5.60;4.20;;;;;;;16.62;100.00;99499.16;105561;1258;70034;-71
2023/07/22 09:35:45;;;;;;;5.80;4.40;;;;;;;16.60;100.00;99492.39;105540;1253;72600;-71
2023/07/22 09:38:15;;;;;;;5.00;4.40;;;;;;;16.58;100.00;99498.31;105686;1254;61781;-70
2023/07/22 09:40:42;;;;;;;5.90;4.40;;;;;;;16.54;100.00;99495.23;105503;1253;60460;-71
2023/07/22 09:43:12;;;;;;;5.40;4.70;;;;;;;16.50;100.00;99500.44;105348;1259;73907;-72
2023/07/22 09:45:39;;;;;;;4.90;4.30;;;;;;;16.45;100.00;99503.76;105507;1256;70312;-71
2023/07/22 09:48:08;;;;;;;5.70;4.40;;;;;;;16.43;100.00;99501.79;105854;1260;71713;-72
2023/07/22 09:50:36;;;;;;;4.80;4.20;;;;;;;16.41;100.00;99499.65;106107;1253;61066;-70
2023/07/22 09:53:04;;;;;;;7.30;4.80;;;;;;;16.40;100.00;99502.66;105956;1256;60537;-73
2023/07/22 09:55:32;;;;;;;6.90;3.90;;;;;;;16.39;100.00;99496.35;105439;1254;73110;-70
2023/07/22 09:58:05;;;;;;;4.40;4.00;;;;;;;16.36;100.00;99490.17;105360;1260;69239;-72
2023/07/22 10:00:33;;;;;;;4.40;4.00;;;;;;;16.34;100.00;99482.60;105379;1259;70453;-73
2023/07/22 10:03:02;;;;;;;4.30;3.90;;;;;;;16.33;100.00;99486.89;105478;1253;60435;-72
2023/07/22 10:05:29;;;;;;;4.40;4.10;;;;;;;16.33;100.00;99494.93;105209;1253;60508;-74
2023/07/22 10:07:57;;;;;;;4.50;4.10;;;;;;;16.31;100.00;99487.55;105662;1260;73218;-72
2023/07/22 10:10:35;;;;;;;4.20;3.80;;;;;;;16.30;100.00;99488.88;105375;1256;70351;-73
2023/07/22 10:13:03;;;;;;;4.30;3.90;;;;;;;16.22;100.00;99478.15;105451;1261;71757;-71
2023/07/22 10:15:35;;;;;;;4.00;3.60;;;;;;;16.15;100.00;99472.55;105369;1260;61719;-73
2023/07/22 10:18:04;;;;;;;7.20;3.60;;;;;;;16.08;100.00;99469.69;105763;1256;60354;-71
2023/07/22 10:20:36;;;;;;;4.90;3.80;;;;;;;16.04;100.00;99460.14;106280;1254;73703;-72
2023/07/22 10:23:04;;;;;;;5.40;3.60;;;;;;;15.98;100.00;99460.54;106329;1259;68921;-73
2023/07/22 10:25:32;;;;;;;3.90;3.30;;;;;;;15.93;100.00;99450.13;105856;1259;70875;-72
2023/07/22 10:27:59;;;;;;;4.50;3.30;;;;;;;15.89;100.00;99449.83;105736;1261;61322;-73
2023/07/22 10:30:27;;;;;;;3.60;3.10;;;;;;;15.87;100.00;99448.10;107287;1254;60293;-72
2023/07/22 10:32:55;;;;;;;6.30;3.90;;;;;;;15.87;100.00;99442.38;106753;1253;73168;-74
2023/07/22 10:35:32;;;;;;;6.10;4.60;;;;;;;15.87;100.00;99435.59;105740;1261;69399;-71
2023/07/22 10:38:08;;;;;;;5.20;4.70;;;;;;;15.88;100.00;99431.88;106812;1256;72660;-71
2023/07/22 10:40:52;;;;;;;7.50;6.50;;;;;;;15.91;100.00;99424.73;105576;1254;60705;-74
2023/07/22 10:43:29;;;;;;;7.60;5.90;;;;;;;15.94;100.00;99431.07;105552;1254;60733;-70
2023/07/22 10:45:58;;;;;;;6.70;6.10;;;;;;;15.96;100.00;99429.87;105797;1260;74771;-73
2023/07/22 10:48:27;;;;;;;5.80;5.30;;;;;;;15.97;100.00;99422.28;105967;1258;68767;-69
2023/07/22 10:50:58;;;;;;;5.40;4.90;;;;;;;15.98;100.00;99425.00;106042;1256;72452;-72
2023/07/22 10:53:26;;;;;;;6.20;4.60;;;;;;;16.00;100.00;99418.92;105893;1258;60929;-73
2023/07/22 10:56:06;;;;;;;7.20;4.60;;;;;;;16.02;100.00;99422.52;105771;1257;60512;-72
2023/07/22 10:58:54;;;;;;;5.10;4.40;;;;;;;16.04;100.00;99421.27;105620;1258;73827;-72
2023/07/22 11:01:27;;;;;;;5.00;4.40;;;;;;;16.07;100.00;99421.91;105390;1257;70626;-73
2023/07/22 11:04:12;;;;;;;4.50;4.10;;;;;;;16.09;100.00;99423.81;105447;1257;72463;-72
2023/07/22 11:07:04;;;;;;;5.00;4.40;;;;;;;16.10;100.00;99424.76;105449;1256;61311;-72
2023/07/22 11:09:35;;;;;;;5.00;4.30;;;;;;;16.11;100.00;99428.37;105523;1260;60385;-72
2023/07/22 11:12:11;;;;;;;4.10;3.80;;;;;;;16.12;100.00;99422.84;105371;1258;73218;-74
2023/07/22 11:14:39;;;;;;;4.10;3.70;;;;;;;16.11;100.00;99428.01;105757;1256;69942;-71
2023/07/22 11:17:10;;;;;;;8.00;4.80;;;;;;;16.09;100.00;99425.59;105444;1256;71397;-72
2023/07/22 11:19:38;;;;;;;4.60;4.10;;;;;;;16.08;100.00;99425.09;106042;1259;60428;-71
2023/07/22 11:22:06;;;;;;;6.90;4.20;;;;;;;16.07;100.00;99419.83;105671;1257;60500;-72
2023/07/22 11:24:37;;;;;;;6.50;4.50;;;;;;;16.07;100.00;99415.16;105381;1260;73806;-72
2023/07/22 11:27:06;;;;;;;3.80;3.40;;;;;;;16.04;100.00;99414.39;105605;1260;69227;-75
2023/07/22 11:29:34;;;;;;;8.70;4.10;;;;;;;16.00;100.00;99411.60;105672;1260;72336;-71